CAN weather

Guangzhou Baiyun International Airport
Guangzhou, Guangdong Province, China

Public forecast

Using degrees Celsius for public forecast. Weather courtesy of forecast.io.

Current aviation weather report (METAR) for Guangzhou Baiyun International Airport

Retrieved 2019/10/16 21:30 UTC (0 seconds ago):

ZGGG 162130Z 03003MPS CAVOK 22/16 Q1018 NOSIG

Aviation forecast (TAF) for Guangzhou Baiyun International Airport

Retrieved 2019/10/16 18:03 UTC (3 hours ago):

TAF ZGGG 161506Z 1618/1718 02004MPS CAVOK TX30/1707Z TN22/1622Z